createdAt,value
2023-02-21T00:00:35.978Z,7.10
2023-02-21T00:03:22.645Z,5.32
2023-02-21T00:06:08.326Z,4.95
2023-02-21T00:08:53.444Z,8.90
2023-02-21T00:11:39.586Z,9.50
2023-02-21T00:14:25.055Z,7.75
2023-02-21T00:17:10.433Z,6.43
2023-02-21T00:19:57.367Z,8.13
2023-02-21T00:22:42.770Z,11.43
2023-02-21T00:25:28.441Z,6.93
2023-02-21T00:28:13.701Z,5.20
2023-02-21T00:30:59.359Z,7.50
2023-02-21T00:33:44.785Z,8.15
2023-02-21T00:36:36.716Z,7.70
2023-02-21T00:39:22.407Z,6.47
2023-02-21T00:42:07.869Z,9.73
2023-02-21T00:44:53.225Z,5.97
2023-02-21T00:47:38.653Z,6.45
2023-02-21T00:50:25.331Z,7.22
2023-02-21T00:53:12.267Z,6.35
2023-02-21T00:56:03.247Z,7.10
2023-02-21T00:58:49.267Z,6.60
2023-02-21T01:01:34.907Z,7.15
2023-02-21T01:04:20.600Z,7.43
2023-02-21T01:07:09.641Z,6.05
2023-02-21T01:09:56.750Z,7.78
2023-02-21T01:12:42.143Z,8.35
2023-02-21T01:15:28.528Z,8.90
2023-02-21T01:18:13.447Z,6.82
2023-02-21T01:20:58.943Z,7.32
2023-02-21T01:23:44.617Z,7.75
2023-02-21T01:26:31.201Z,7.72
2023-02-21T01:29:16.880Z,5.22
2023-02-21T01:32:02.147Z,4.38
2023-02-21T01:34:47.376Z,7.38
2023-02-21T01:37:32.728Z,6.30
2023-02-21T01:40:17.983Z,7.03
2023-02-21T01:43:04.719Z,5.38
2023-02-21T01:46:02.444Z,6.20
2023-02-21T01:48:49.256Z,4.13
2023-02-21T01:51:43.088Z,5.93
2023-02-21T01:54:29.624Z,4.03
2023-02-21T01:57:18.258Z,5.55
2023-02-21T02:00:06.020Z,6.35
2023-02-21T02:02:59.082Z,5.80
2023-02-21T02:05:46.869Z,10.20
2023-02-21T02:08:35.564Z,8.45
2023-02-21T02:11:29.762Z,6.53
2023-02-21T02:14:13.753Z,7.00
2023-02-21T02:16:48.112Z,3.97
2023-02-21T02:19:55.270Z,3.53
2023-02-21T02:22:52.108Z,3.35
2023-02-21T02:25:32.164Z,5.45
2023-02-21T02:28:34.289Z,3.58
2023-02-21T02:31:26.252Z,4.40
2023-02-21T02:34:36.128Z,5.10
2023-02-21T02:37:13.246Z,6.95
2023-02-21T02:39:47.592Z,6.35
2023-02-21T02:42:28.205Z,10.30
2023-02-21T02:45:04.052Z,3.40
2023-02-21T02:47:37.651Z,3.63
2023-02-21T02:50:07.995Z,9.80
2023-02-21T02:52:38.872Z,6.97
2023-02-21T02:55:24.654Z,5.00
2023-02-21T02:57:54.133Z,5.35
2023-02-21T03:00:22.795Z,5.28
2023-02-21T03:03:03.574Z,8.98
2023-02-21T03:05:46.520Z,5.13
2023-02-21T03:08:27.461Z,4.25
2023-02-21T03:11:03.884Z,5.55
2023-02-21T03:13:39.085Z,5.10
2023-02-21T03:16:19.052Z,4.78
2023-02-21T03:18:50.527Z,4.50
2023-02-21T03:21:22.779Z,7.13
2023-02-21T03:23:55.549Z,6.80
2023-02-21T03:26:23.496Z,5.20
2023-02-21T03:28:51.824Z,4.90
2023-02-21T03:31:26.135Z,6.45
2023-02-21T03:33:54.905Z,11.35
2023-02-21T03:36:23.674Z,6.53
2023-02-21T03:38:52.808Z,4.88
2023-02-21T03:41:20.675Z,3.75
2023-02-21T03:43:48.792Z,3.40
2023-02-21T03:46:16.850Z,6.90
2023-02-21T03:48:44.993Z,3.58
2023-02-21T03:51:13.090Z,4.65
2023-02-21T03:53:41.168Z,6.82
2023-02-21T03:56:10.527Z,5.53
2023-02-21T03:58:38.524Z,3.67
2023-02-21T04:01:06.813Z,3.58
2023-02-21T04:03:34.731Z,4.72
2023-02-21T04:06:04.002Z,5.93
2023-02-21T04:08:31.790Z,6.20
2023-02-21T04:10:59.679Z,6.32
2023-02-21T04:13:29.025Z,7.40
2023-02-21T04:15:56.901Z,5.80
2023-02-21T04:18:24.923Z,6.05
2023-02-21T04:20:52.846Z,5.07
2023-02-21T04:23:22.018Z,8.32
2023-02-21T04:25:49.884Z,9.38
2023-02-21T04:28:17.870Z,5.68
2023-02-21T04:30:47.486Z,5.40
2023-02-21T04:33:15.715Z,6.28
2023-02-21T04:35:43.870Z,9.70
2023-02-21T04:38:11.914Z,4.63
2023-02-21T04:40:39.802Z,9.82
2023-02-21T04:43:07.703Z,10.27
2023-02-21T04:45:35.816Z,4.45
2023-02-21T04:48:05.276Z,5.07
2023-02-21T04:50:33.515Z,5.57
2023-02-21T04:53:01.513Z,5.55
2023-02-21T04:55:29.472Z,5.93
2023-02-21T04:57:57.610Z,4.55
2023-02-21T05:00:25.870Z,6.97
2023-02-21T05:02:53.749Z,5.13
2023-02-21T05:05:23.271Z,6.45
2023-02-21T05:07:51.160Z,7.70
2023-02-21T05:10:19.454Z,8.52
2023-02-21T05:12:47.444Z,9.57
2023-02-21T05:15:16.387Z,6.88
2023-02-21T05:17:46.403Z,4.78
2023-02-21T05:20:14.747Z,10.23
2023-02-21T05:22:44.320Z,4.65
2023-02-21T05:25:17.433Z,5.65
2023-02-21T05:27:46.114Z,6.70
2023-02-21T05:30:15.517Z,6.25
2023-02-21T05:32:43.666Z,12.43
2023-02-21T05:35:12.062Z,7.60
2023-02-21T05:37:40.088Z,5.65
2023-02-21T05:40:12.206Z,6.72
2023-02-21T05:42:40.255Z,7.15
2023-02-21T05:45:09.977Z,5.43
2023-02-21T05:47:38.671Z,8.50
2023-02-21T05:50:07.295Z,9.70
2023-02-21T05:52:35.556Z,12.35
2023-02-21T05:55:03.510Z,6.50
2023-02-21T05:57:32.998Z,7.05
2023-02-21T06:00:01.151Z,8.13
2023-02-21T06:02:29.153Z,8.43
2023-02-21T06:04:57.136Z,8.82
2023-02-21T06:07:25.322Z,6.15
2023-02-21T06:09:53.302Z,9.88
2023-02-21T06:12:21.211Z,7.53
2023-02-21T06:14:50.633Z,8.63
2023-02-21T06:17:18.511Z,5.00
2023-02-21T06:19:46.465Z,13.60
2023-02-21T06:22:14.546Z,7.53
2023-02-21T06:24:42.421Z,7.75
2023-02-21T06:27:10.614Z,12.52
2023-02-21T06:29:38.545Z,11.02
2023-02-21T06:32:08.120Z,15.13
2023-02-21T06:34:37.517Z,9.82
2023-02-21T06:37:06.487Z,9.50
2023-02-21T06:39:34.688Z,8.38
2023-02-21T06:42:02.645Z,8.00
2023-02-21T06:44:33.156Z,10.52
2023-02-21T06:47:01.598Z,5.68
2023-02-21T06:49:31.471Z,9.07
2023-02-21T06:51:59.687Z,6.53
2023-02-21T06:54:27.880Z,10.00
2023-02-21T06:56:56.010Z,6.38
2023-02-21T06:59:24.198Z,9.85
2023-02-21T07:01:52.340Z,10.85
2023-02-21T07:04:20.190Z,7.93
2023-02-21T07:06:49.825Z,8.68
2023-02-21T07:09:17.812Z,5.80
2023-02-21T07:11:47.144Z,13.15
2023-02-21T07:14:15.254Z,6.90
2023-02-21T07:16:43.391Z,9.82
2023-02-21T07:21:43.832Z,9.38
2023-02-21T07:24:13.148Z,8.98
2023-02-21T07:26:41.477Z,11.52
2023-02-21T07:29:09.655Z,10.75
2023-02-21T07:31:37.711Z,9.35
2023-02-21T07:34:05.824Z,10.50
2023-02-21T07:36:33.797Z,10.77
2023-02-21T07:39:01.794Z,6.78
2023-02-21T07:41:33.864Z,11.55
2023-02-21T07:44:01.938Z,12.85
2023-02-21T07:46:31.642Z,10.00
2023-02-21T07:48:59.652Z,13.43
2023-02-21T07:51:30.313Z,12.20
2023-02-21T07:53:59.032Z,10.52
2023-02-21T07:56:26.944Z,21.00
2023-02-21T07:58:56.259Z,20.15
2023-02-21T08:01:25.450Z,24.17
2023-02-21T08:03:53.725Z,11.27
2023-02-21T08:06:22.096Z,22.58
2023-02-21T08:08:50.439Z,17.42
2023-02-21T08:11:18.587Z,20.95
2023-02-21T08:13:46.654Z,22.58
2023-02-21T08:16:16.539Z,23.23
2023-02-21T08:18:44.485Z,21.08
2023-02-21T08:21:12.654Z,17.80
2023-02-21T08:23:40.725Z,15.40
2023-02-21T08:26:08.887Z,18.25
2023-02-21T08:28:38.234Z,18.45
2023-02-21T08:31:06.578Z,26.83
2023-02-21T08:33:35.882Z,21.67
2023-02-21T08:36:04.166Z,13.10
2023-02-21T08:38:32.116Z,14.68
2023-02-21T08:40:59.913Z,23.50
2023-02-21T08:43:28.783Z,13.87
2023-02-21T08:45:56.725Z,17.37
2023-02-21T08:48:25.334Z,24.47
2023-02-21T08:50:54.994Z,15.93
2023-02-21T08:53:23.110Z,27.00
2023-02-21T08:55:51.078Z,18.33
2023-02-21T08:58:19.204Z,17.53
2023-02-21T09:00:47.183Z,18.17
2023-02-21T09:03:15.229Z,22.90
2023-02-21T09:05:43.239Z,23.97
2023-02-21T09:08:12.598Z,28.83
2023-02-21T09:10:44.605Z,36.77
2023-02-21T09:13:12.907Z,14.33
2023-02-21T09:15:41.393Z,29.50
2023-02-21T09:18:09.586Z,20.07
2023-02-21T09:20:41.664Z,16.90
2023-02-21T09:23:09.932Z,18.37
2023-02-21T09:25:39.429Z,16.67
2023-02-21T09:28:07.341Z,22.53
2023-02-21T09:30:36.177Z,19.70
2023-02-21T09:33:04.500Z,15.30
2023-02-21T09:35:33.530Z,14.90
2023-02-21T09:38:03.277Z,24.27
2023-02-21T09:40:44.307Z,12.07
2023-02-21T09:43:20.780Z,18.20
2023-02-21T09:45:51.351Z,13.33
2023-02-21T09:48:22.873Z,12.60
2023-02-21T09:50:53.983Z,16.77
2023-02-21T09:53:27.104Z,16.70
2023-02-21T09:56:01.269Z,19.40
2023-02-21T09:58:30.657Z,21.03
2023-02-21T10:01:02.773Z,13.27
2023-02-21T10:03:45.238Z,13.07
2023-02-21T10:06:25.528Z,12.50
2023-02-21T10:08:59.085Z,9.60
2023-02-21T10:11:38.811Z,13.70
2023-02-21T10:14:19.404Z,11.63
2023-02-21T10:16:54.626Z,11.23
2023-02-21T10:19:30.030Z,10.27
2023-02-21T10:21:59.966Z,14.63
2023-02-21T10:24:29.808Z,11.40
2023-02-21T10:27:03.984Z,12.70
2023-02-21T10:29:43.880Z,18.50
2023-02-21T10:32:12.226Z,13.53
2023-02-21T10:34:46.353Z,13.90
2023-02-21T10:37:27.070Z,12.83
2023-02-21T10:40:00.884Z,12.40
2023-02-21T10:42:37.322Z,14.60
2023-02-21T10:45:07.832Z,16.67
2023-02-21T10:47:50.295Z,15.80
2023-02-21T10:50:38.941Z,10.30
2023-02-21T10:53:08.283Z,9.00
2023-02-21T10:55:36.607Z,10.27
2023-02-21T10:58:11.169Z,11.30
2023-02-21T11:00:42.229Z,10.13
2023-02-21T11:03:23.944Z,9.20
2023-02-21T11:05:52.869Z,13.27
2023-02-21T11:08:36.771Z,7.50
2023-02-21T11:11:04.873Z,5.70
2023-02-21T11:13:36.359Z,8.63
2023-02-21T11:16:12.834Z,7.27
2023-02-21T11:18:40.952Z,7.60
2023-02-21T11:21:14.710Z,12.67
2023-02-21T11:23:49.588Z,12.70
2023-02-21T11:26:17.542Z,8.10
2023-02-21T11:28:48.571Z,10.87
2023-02-21T11:31:23.001Z,14.03
2023-02-21T11:33:57.327Z,16.43
2023-02-21T11:36:30.686Z,11.63
2023-02-21T11:39:07.486Z,10.03
2023-02-21T11:41:45.890Z,10.17
2023-02-21T11:44:29.084Z,12.73
2023-02-21T11:47:06.165Z,15.33
2023-02-21T11:49:45.663Z,7.83
2023-02-21T11:52:20.373Z,7.93
2023-02-21T11:54:48.287Z,17.13
2023-02-21T11:57:23.081Z,8.67
2023-02-21T12:00:00.858Z,11.90
2023-02-21T12:02:55.750Z,7.43
2023-02-21T12:05:36.323Z,7.33
2023-02-21T12:08:22.994Z,10.00
2023-02-21T12:11:01.979Z,7.53
2023-02-21T12:13:39.706Z,6.67
2023-02-21T12:16:20.441Z,6.97
2023-02-21T12:19:02.343Z,4.67
2023-02-21T12:22:05.665Z,7.90
2023-02-21T12:24:50.710Z,4.43
2023-02-21T12:27:24.403Z,4.40
2023-02-21T12:30:09.874Z,9.93
2023-02-21T12:33:00.155Z,12.67
2023-02-21T12:36:02.696Z,4.63
2023-02-21T12:38:39.710Z,5.73
2023-02-21T12:41:22.134Z,4.20
2023-02-21T12:43:56.179Z,7.63
2023-02-21T12:46:32.378Z,4.83
2023-02-21T12:49:06.702Z,7.87
2023-02-21T12:51:40.031Z,8.97
2023-02-21T12:54:15.283Z,8.50
2023-02-21T12:56:49.672Z,5.03
2023-02-21T12:59:27.438Z,4.93
2023-02-21T13:02:01.373Z,3.87
2023-02-21T13:04:47.675Z,3.90
2023-02-21T13:07:25.810Z,3.87
2023-02-21T13:10:00.915Z,9.73
2023-02-21T13:12:36.422Z,4.90
2023-02-21T13:15:15.973Z,4.60
2023-02-21T13:17:44.726Z,5.63
2023-02-21T13:20:19.957Z,9.00
2023-02-21T13:23:42.839Z,6.13
2023-02-21T13:26:45.331Z,3.03
2023-02-21T13:29:20.423Z,4.57
2023-02-21T13:31:50.917Z,4.77
2023-02-21T13:34:24.427Z,7.10
2023-02-21T13:36:53.792Z,4.57
2023-02-21T13:39:31.851Z,4.30
2023-02-21T13:42:08.398Z,3.30
2023-02-21T13:44:39.930Z,3.00
2023-02-21T13:47:16.011Z,5.27
2023-02-21T13:49:51.743Z,4.03
2023-02-21T13:52:52.207Z,2.80
2023-02-21T13:55:27.959Z,2.63
2023-02-21T13:58:32.528Z,2.80
2023-02-21T14:01:22.582Z,2.60
2023-02-21T14:03:51.457Z,3.80
2023-02-21T14:06:35.889Z,4.53
2023-02-21T14:09:11.777Z,4.93
2023-02-21T14:11:46.157Z,7.30
2023-02-21T14:14:24.269Z,7.30
2023-02-21T14:16:59.468Z,7.10
2023-02-21T14:19:35.885Z,4.27
2023-02-21T14:22:10.124Z,3.80
2023-02-21T14:24:43.784Z,5.00
2023-02-21T14:27:34.200Z,3.53
2023-02-21T14:30:30.936Z,3.33
2023-02-21T14:33:17.817Z,5.10
2023-02-21T14:35:50.834Z,7.33
2023-02-21T14:38:23.640Z,6.20
2023-02-21T14:41:03.974Z,5.40
2023-02-21T14:43:55.061Z,12.50
2023-02-21T14:46:50.580Z,6.03
2023-02-21T14:49:41.969Z,4.70
2023-02-21T14:52:33.278Z,5.87
2023-02-21T14:55:36.580Z,4.30
2023-02-21T14:58:49.046Z,17.00
2023-02-21T15:01:34.986Z,6.90
2023-02-21T15:04:14.058Z,7.17
2023-02-21T15:06:46.377Z,4.00
2023-02-21T15:09:18.983Z,7.90
2023-02-21T15:11:49.371Z,5.10
2023-02-21T15:14:23.746Z,5.67
2023-02-21T15:16:57.065Z,4.97
2023-02-21T15:19:29.044Z,6.83
2023-02-21T15:25:26.269Z,6.60
2023-02-21T15:28:02.859Z,7.17
2023-02-21T15:30:40.013Z,11.10
2023-02-21T15:33:16.319Z,12.70
2023-02-21T15:35:49.807Z,6.07
2023-02-21T15:38:24.395Z,7.00
2023-02-21T15:40:56.389Z,4.90
2023-02-21T15:43:31.166Z,8.30
2023-02-21T15:46:02.995Z,8.03
2023-02-21T15:48:32.562Z,10.97
2023-02-21T15:51:05.063Z,9.30
2023-02-21T15:53:33.290Z,4.53
2023-02-21T15:56:18.260Z,3.60
2023-02-21T15:59:09.120Z,5.27
2023-02-21T16:01:36.920Z,6.33
2023-02-21T16:04:21.787Z,6.33
2023-02-21T16:06:55.646Z,5.73
2023-02-21T16:09:28.034Z,6.17
2023-02-21T16:12:01.186Z,7.30
2023-02-21T16:14:40.280Z,4.40
2023-02-21T16:17:22.872Z,3.67
2023-02-21T16:19:57.389Z,4.50
2023-02-21T16:22:53.764Z,3.90
2023-02-21T16:25:26.979Z,3.80
2023-02-21T16:27:57.874Z,4.33
2023-02-21T16:30:27.856Z,5.20
2023-02-21T16:33:01.391Z,4.50
2023-02-21T16:35:31.454Z,10.07
2023-02-21T16:38:00.783Z,5.97
2023-02-21T16:40:30.647Z,6.93
2023-02-21T16:43:01.312Z,6.13
2023-02-21T16:45:30.179Z,7.90
2023-02-21T16:48:01.375Z,10.10
2023-02-21T16:50:33.186Z,11.83
2023-02-21T16:53:02.213Z,7.00
2023-02-21T16:55:31.258Z,9.60
2023-02-21T16:58:03.902Z,6.83
2023-02-21T17:00:33.565Z,6.70
2023-02-21T17:03:02.591Z,3.70
2023-02-21T17:05:31.928Z,5.90
2023-02-21T17:08:00.664Z,9.30
2023-02-21T17:10:29.402Z,6.33
2023-02-21T17:12:57.240Z,6.50
2023-02-21T17:15:27.722Z,6.60
2023-02-21T17:17:56.576Z,6.13
2023-02-21T17:20:24.918Z,4.23
2023-02-21T17:22:58.519Z,5.30
2023-02-21T17:25:26.950Z,7.07
2023-02-21T17:27:55.248Z,5.27
2023-02-21T17:30:26.168Z,6.60
2023-02-21T17:32:54.123Z,10.60
2023-02-21T17:35:24.781Z,12.33
2023-02-21T17:37:53.877Z,4.77
2023-02-21T17:40:23.331Z,8.63
2023-02-21T17:42:51.532Z,5.57
2023-02-21T17:45:21.464Z,3.57
2023-02-21T17:47:49.803Z,6.30
2023-02-21T17:50:34.598Z,9.23
2023-02-21T17:53:04.749Z,14.67
2023-02-21T17:55:33.343Z,6.57
2023-02-21T17:58:02.054Z,10.93
2023-02-21T18:00:34.380Z,6.40
2023-02-21T18:03:04.331Z,9.97
2023-02-21T18:05:32.528Z,7.67
2023-02-21T18:08:01.430Z,11.07
2023-02-21T18:10:31.425Z,4.87
2023-02-21T18:12:59.949Z,7.07
2023-02-21T18:15:29.107Z,11.63
2023-02-21T18:17:58.573Z,7.70
2023-02-21T18:20:26.645Z,12.13
2023-02-21T18:22:54.370Z,11.33
2023-02-21T18:25:24.371Z,12.73
2023-02-21T18:27:54.601Z,16.03
2023-02-21T18:30:25.078Z,6.90
2023-02-21T18:32:53.300Z,8.80
2023-02-21T18:35:21.417Z,12.47
2023-02-21T18:37:50.321Z,7.10
2023-02-21T18:40:21.633Z,12.87
2023-02-21T18:42:49.876Z,23.13
2023-02-21T18:45:19.739Z,20.70
2023-02-21T18:47:48.129Z,10.67
2023-02-21T18:50:16.021Z,11.57
2023-02-21T18:52:44.011Z,12.00
2023-02-21T18:55:12.702Z,15.20
2023-02-21T18:57:41.063Z,13.30
2023-02-21T19:00:10.643Z,14.60
2023-02-21T19:02:40.116Z,10.33
2023-02-21T19:05:08.425Z,12.77
2023-02-21T19:07:37.834Z,9.30
2023-02-21T19:10:06.383Z,10.80
2023-02-21T19:12:34.254Z,10.17
2023-02-21T19:15:07.623Z,18.10
2023-02-21T19:17:38.979Z,15.00
2023-02-21T19:20:09.224Z,14.30
2023-02-21T19:22:38.838Z,12.70
2023-02-21T19:25:08.142Z,11.47
2023-02-21T19:27:38.151Z,15.00
2023-02-21T19:30:08.273Z,18.37
2023-02-21T19:32:37.775Z,13.63
2023-02-21T19:35:09.099Z,13.17
2023-02-21T19:37:42.333Z,18.30
2023-02-21T19:40:14.481Z,14.90
2023-02-21T19:42:43.993Z,14.20
2023-02-21T19:45:13.240Z,13.83
2023-02-21T19:47:41.071Z,18.53
2023-02-21T19:50:09.338Z,20.53
2023-02-21T19:52:38.663Z,16.90
2023-02-21T19:55:08.295Z,16.60
2023-02-21T19:57:36.464Z,21.83
2023-02-21T20:00:06.291Z,14.20
2023-02-21T20:02:34.081Z,21.77
2023-02-21T20:05:01.794Z,16.63
2023-02-21T20:07:29.696Z,17.20
2023-02-21T20:09:58.775Z,15.33
2023-02-21T20:12:26.714Z,19.30
2023-02-21T20:14:56.065Z,14.10
2023-02-21T20:17:23.879Z,22.90
2023-02-21T20:19:51.913Z,21.93
2023-02-21T20:22:19.849Z,18.30
2023-02-21T20:24:47.747Z,21.27
2023-02-21T20:27:17.311Z,20.55
2023-02-21T20:29:45.247Z,19.15
2023-02-21T20:32:15.776Z,24.52
2023-02-21T20:34:43.562Z,15.27
2023-02-21T20:37:12.223Z,17.98
2023-02-21T20:39:40.420Z,19.90
2023-02-21T20:42:08.362Z,18.05
2023-02-21T20:44:39.311Z,15.40
2023-02-21T20:47:09.920Z,17.80
2023-02-21T20:49:38.155Z,19.03
2023-02-21T20:52:06.337Z,18.58
2023-02-21T20:54:34.316Z,16.13
2023-02-21T20:57:02.618Z,23.88
2023-02-21T20:59:34.112Z,15.60
2023-02-21T21:02:04.771Z,20.85
2023-02-21T21:04:35.673Z,21.05
2023-02-21T21:07:06.561Z,18.25
2023-02-21T21:09:35.183Z,17.38
2023-02-21T21:12:02.381Z,17.35
2023-02-21T21:14:32.290Z,17.42
2023-02-21T21:17:01.887Z,13.65
2023-02-21T21:19:34.192Z,14.10
2023-02-21T21:22:09.068Z,14.45
2023-02-21T21:24:38.235Z,10.10
2023-02-21T21:27:09.891Z,13.75
2023-02-21T21:29:39.167Z,11.77
2023-02-21T21:32:09.367Z,13.90
2023-02-21T21:34:42.173Z,15.40
2023-02-21T21:37:10.994Z,13.73
2023-02-21T21:39:40.090Z,12.45
2023-02-21T21:42:10.115Z,14.27
2023-02-21T21:44:39.630Z,24.25
2023-02-21T21:47:08.192Z,13.98
2023-02-21T21:49:37.393Z,13.75
2023-02-21T21:52:06.896Z,15.27
2023-02-21T21:54:36.409Z,15.60
2023-02-21T21:57:05.604Z,10.05
2023-02-21T21:59:38.141Z,14.32
2023-02-21T22:02:06.227Z,12.43
2023-02-21T22:04:34.744Z,13.45
2023-02-21T22:07:02.687Z,13.57
2023-02-21T22:09:32.878Z,14.55
2023-02-21T22:12:00.687Z,17.60
2023-02-21T22:14:28.918Z,14.70
2023-02-21T22:16:57.001Z,13.50
2023-02-21T22:19:26.183Z,12.43
2023-02-21T22:21:55.760Z,15.45
2023-02-21T22:24:25.453Z,13.13
2023-02-21T22:26:56.131Z,17.08
2023-02-21T22:29:23.914Z,11.82
2023-02-21T22:31:52.538Z,15.77
2023-02-21T22:34:24.142Z,16.77
2023-02-21T22:36:53.009Z,13.05
2023-02-21T22:39:22.051Z,13.98
2023-02-21T22:41:49.906Z,15.75
2023-02-21T22:44:19.856Z,20.17
2023-02-21T22:46:58.273Z,11.32
2023-02-21T22:49:26.752Z,11.23
2023-02-21T22:51:54.697Z,16.48
2023-02-21T22:54:22.545Z,13.52
2023-02-21T22:56:54.844Z,14.95
2023-02-21T22:59:25.323Z,12.52
2023-02-21T23:01:53.546Z,9.07
2023-02-21T23:04:26.506Z,13.13
2023-02-21T23:06:55.812Z,16.10
2023-02-21T23:09:24.695Z,12.95
2023-02-21T23:11:55.059Z,15.88
2023-02-21T23:14:24.920Z,11.93
2023-02-21T23:16:57.357Z,12.55
2023-02-21T23:19:25.540Z,12.95
2023-02-21T23:21:54.275Z,15.18
2023-02-21T23:24:23.445Z,12.85
2023-02-21T23:26:55.047Z,9.27
2023-02-21T23:29:25.998Z,15.77
2023-02-21T23:31:57.836Z,11.73
2023-02-21T23:34:40.518Z,13.73
2023-02-21T23:37:12.041Z,10.00
2023-02-21T23:39:41.611Z,8.65
2023-02-21T23:42:11.030Z,11.70
2023-02-21T23:44:41.183Z,13.68
2023-02-21T23:47:09.105Z,9.32
2023-02-21T23:49:43.991Z,14.65
2023-02-21T23:52:11.833Z,12.63
2023-02-21T23:54:41.442Z,15.32
2023-02-21T23:57:09.109Z,13.98
2023-02-21T23:59:37.205Z,18.13
